Photometre #846[NE_1.6_Dp] Watnall_MO AOT

File : 20210611_846.hum

11/06/2021,04:53:36,TEMP=17.2,BA=5.44,STAT.A,ExtBa=13.00
11/06/2021,04:58:22,TEMP=17.4,BA=5.44,STAT.A,ExtBa=13.00
11/06/2021,05:03:53,TEMP=17.5,BA=5.28,STAT.A,ExtBa=13.00
11/06/2021,05:10:21,TEMP=17.5,BA=5.48,STAT.A,ExtBa=12.90
11/06/2021,05:18:04,TEMP=17.6,BA=5.48,STAT.A,ExtBa=12.90
11/06/2021,05:27:25,TEMP=17.6,BA=5.36,STAT.A,ExtBa=12.90
11/06/2021,05:39:01,TEMP=17.6,BA=5.40,STAT.B,ExtBa=13.00
11/06/2021,05:44:29,TEMP=17.7,BA=5.28,STAT.A,ExtBa=12.90
11/06/2021,05:50:33,TEMP=17.7,BA=5.48,STAT.A,ExtBa=12.90
11/06/2021,05:57:19,TEMP=17.6,BA=5.48,STAT.A,ExtBa=12.90
11/06/2021,06:04:55,TEMP=17.6,BA=5.40,STAT.A,ExtBa=12.90
11/06/2021,06:13:33,TEMP=17.6,BA=5.56,STAT.C,ExtBa=12.90
11/06/2021,06:23:25,TEMP=17.7,BA=5.64,STAT.A,ExtBa=12.90
11/06/2021,06:34:52,TEMP=18.1,BA=5.64,STAT.A,ExtBa=13.00
11/06/2021,06:48:18,TEMP=18.8,BA=5.68,STAT.A,ExtBa=13.00
11/06/2021,07:00:23,TEMP=19.0,BA=5.68,STAT.D,ExtBa=13.00
11/06/2021,07:04:23,TEMP=19.2,BA=5.68,STAT.A,ExtBa=12.90
11/06/2021,07:15:23,TEMP=19.2,BA=5.68,STAT.D,ExtBa=13.00
11/06/2021,07:24:05,TEMP=19.6,BA=5.68,STAT.B,ExtBa=13.10
11/06/2021,07:36:23,TEMP=19.6,BA=5.68,STAT.D,ExtBa=13.00
11/06/2021,07:48:23,TEMP=19.4,BA=5.68,STAT.D,ExtBa=13.00
11/06/2021,08:00:24,TEMP=19.6,BA=5.68,STAT.D,ExtBa=13.10
11/06/2021,08:04:22,TEMP=20.0,BA=5.68,STAT.E,ExtBa=13.10
11/06/2021,08:06:22,TEMP=20.6,BA=5.68,STAT.E,ExtBa=13.00
11/06/2021,08:18:24,TEMP=19.9,BA=5.68,STAT.D,ExtBa=13.10
11/06/2021,08:20:25,TEMP=20.3,BA=5.60,STAT.D,ExtBa=13.10
11/06/2021,08:33:24,TEMP=20.6,BA=5.68,STAT.D,ExtBa=13.20
11/06/2021,08:35:23,TEMP=21.1,BA=5.68,STAT.D,ExtBa=13.10
11/06/2021,08:48:24,TEMP=20.2,BA=5.68,STAT.D,ExtBa=13.10
11/06/2021,08:50:24,TEMP=20.6,BA=5.60,STAT.D,ExtBa=13.10
11/06/2021,09:03:24,TEMP=21.2,BA=5.68,STAT.D,ExtBa=13.20
11/06/2021,09:05:22,TEMP=21.8,BA=5.68,STAT.F,ExtBa=13.10
11/06/2021,09:18:24,TEMP=21.6,BA=5.68,STAT.D,ExtBa=13.30
11/06/2021,09:20:25,TEMP=22.1,BA=5.60,STAT.D,ExtBa=13.20
11/06/2021,09:33:24,TEMP=21.6,BA=5.64,STAT.D,ExtBa=13.50
11/06/2021,09:35:26,TEMP=22.1,BA=5.64,STAT.D,ExtBa=13.40
11/06/2021,09:48:24,TEMP=21.3,BA=5.64,STAT.D,ExtBa=13.40
11/06/2021,09:50:23,TEMP=21.8,BA=5.64,STAT.D,ExtBa=13.30
11/06/2021,10:03:24,TEMP=20.9,BA=5.64,STAT.D,ExtBa=13.30
11/06/2021,10:05:24,TEMP=21.2,BA=5.64,STAT.F,ExtBa=13.20
11/06/2021,10:12:24,TEMP=20.7,BA=5.64,STAT.D,ExtBa=13.20
11/06/2021,10:19:51,TEMP=20.5,BA=5.64,STAT.D,ExtBa=13.10
11/06/2021,10:33:24,TEMP=20.4,BA=5.64,STAT.D,ExtBa=13.20
11/06/2021,10:35:23,TEMP=20.8,BA=5.64,STAT.D,ExtBa=13.10
11/06/2021,10:48:24,TEMP=20.4,BA=5.64,STAT.D,ExtBa=13.10
11/06/2021,10:50:24,TEMP=20.8,BA=5.64,STAT.D,ExtBa=13.10
11/06/2021,11:03:25,TEMP=20.3,BA=5.64,STAT.D,ExtBa=13.10
11/06/2021,11:05:25,TEMP=20.8,BA=5.64,STAT.F,ExtBa=13.00
11/06/2021,11:18:25,TEMP=20.5,BA=5.64,STAT.D,ExtBa=13.10
11/06/2021,11:20:23,TEMP=20.9,BA=5.64,STAT.D,ExtBa=13.00
11/06/2021,11:33:24,TEMP=20.3,BA=5.64,STAT.D,ExtBa=13.10
11/06/2021,11:35:22,TEMP=20.8,BA=5.64,STAT.D,ExtBa=13.00
11/06/2021,11:48:25,TEMP=20.2,BA=5.64,STAT.D,ExtBa=13.00
11/06/2021,11:50:23,TEMP=20.6,BA=5.64,STAT.D,ExtBa=13.00
11/06/2021,12:03:25,TEMP=20.1,BA=5.64,STAT.D,ExtBa=13.00
11/06/2021,12:05:17,TEMP=20.6,BA=5.64,STAT.F,ExtBa=13.00
11/06/2021,12:18:25,TEMP=20.1,BA=5.64,STAT.D,ExtBa=13.10
11/06/2021,12:20:23,TEMP=20.6,BA=5.64,STAT.D,ExtBa=13.00
11/06/2021,12:33:25,TEMP=20.2,BA=5.64,STAT.D,ExtBa=13.10
11/06/2021,12:35:23,TEMP=20.6,BA=5.64,STAT.D,ExtBa=13.00
11/06/2021,12:48:25,TEMP=20.1,BA=5.64,STAT.D,ExtBa=13.00
11/06/2021,12:50:22,TEMP=20.6,BA=5.64,STAT.D,ExtBa=13.00
11/06/2021,13:03:25,TEMP=20.4,BA=5.64,STAT.D,ExtBa=13.20
11/06/2021,13:05:21,TEMP=21.0,BA=5.64,STAT.F,ExtBa=13.20
11/06/2021,13:18:24,TEMP=20.9,BA=5.64,STAT.D,ExtBa=13.10
11/06/2021,13:20:23,TEMP=21.3,BA=5.64,STAT.D,ExtBa=13.10
11/06/2021,13:33:24,TEMP=20.9,BA=5.64,STAT.D,ExtBa=13.30
11/06/2021,13:35:22,TEMP=21.4,BA=5.64,STAT.D,ExtBa=13.30
11/06/2021,13:48:24,TEMP=21.4,BA=5.64,STAT.D,ExtBa=13.50
11/06/2021,13:50:32,TEMP=21.9,BA=5.56,STAT.D,ExtBa=13.40
11/06/2021,14:03:24,TEMP=21.8,BA=5.64,STAT.D,ExtBa=13.50
11/06/2021,14:05:24,TEMP=22.3,BA=5.64,STAT.F,ExtBa=13.50
11/06/2021,14:18:11,TEMP=22.4,BA=5.68,STAT.s
11/06/2021,14:19:38,TEMP=22.4,BA=5.68,STAT.s
11/06/2021,15:33:32,TEMP=22.4,BA=5.64,STAT.D,ExtBa=13.80
11/06/2021,15:35:33,TEMP=22.8,BA=5.64,STAT.D,ExtBa=13.70
11/06/2021,15:48:24,TEMP=22.4,BA=5.64,STAT.D,ExtBa=13.80
11/06/2021,15:50:24,TEMP=22.9,BA=5.60,STAT.D,ExtBa=13.90
11/06/2021,15:54:24,TEMP=22.8,BA=5.60,STAT.D,ExtBa=14.00
11/06/2021,15:57:24,TEMP=23.1,BA=5.60,STAT.D,ExtBa=14.30
11/06/2021,16:00:24,TEMP=23.2,BA=5.68,STAT.D,ExtBa=14.30
11/06/2021,16:03:24,TEMP=23.4,BA=5.68,STAT.D,ExtBa=14.20
11/06/2021,16:05:25,TEMP=23.8,BA=5.68,STAT.E,ExtBa=14.20
11/06/2021,16:21:37,TEMP=23.8,BA=5.56,STAT.B,ExtBa=13.60
11/06/2021,16:33:23,TEMP=23.0,BA=5.56,STAT.D,ExtBa=13.80
11/06/2021,16:36:24,TEMP=23.1,BA=5.56,STAT.D,ExtBa=13.90
11/06/2021,16:39:23,TEMP=23.0,BA=5.56,STAT.D,ExtBa=13.70
11/06/2021,16:42:23,TEMP=22.9,BA=5.56,STAT.D,ExtBa=14.00
11/06/2021,16:45:23,TEMP=22.9,BA=5.56,STAT.D,ExtBa=14.00
11/06/2021,16:47:25,TEMP=23.2,BA=5.56,STAT.B,ExtBa=13.70
11/06/2021,16:57:23,TEMP=22.6,BA=5.56,STAT.D,ExtBa=13.20
11/06/2021,17:05:21,TEMP=22.0,BA=5.64,STAT.A,ExtBa=13.40
11/06/2021,17:12:23,TEMP=22.0,BA=5.64,STAT.D,ExtBa=13.70
11/06/2021,17:15:23,TEMP=22.2,BA=5.64,STAT.D,ExtBa=13.50
11/06/2021,17:18:23,TEMP=22.0,BA=5.64,STAT.D,ExtBa=13.50
11/06/2021,17:21:23,TEMP=22.0,BA=5.52,STAT.D,ExtBa=13.30
11/06/2021,17:23:30,TEMP=22.2,BA=5.52,STAT.A,ExtBa=13.30
11/06/2021,17:34:52,TEMP=21.6,BA=5.64,STAT.A,ExtBa=13.50
11/06/2021,17:39:23,TEMP=21.6,BA=5.64,STAT.D,ExtBa=13.50
11/06/2021,17:42:23,TEMP=21.7,BA=5.52,STAT.D,ExtBa=13.50
11/06/2021,17:45:23,TEMP=21.7,BA=5.52,STAT.D,ExtBa=13.40
11/06/2021,17:47:38,TEMP=22.0,BA=5.52,STAT.A,ExtBa=13.30
11/06/2021,17:51:23,TEMP=21.7,BA=5.60,STAT.D,ExtBa=13.30
11/06/2021,17:54:23,TEMP=21.8,BA=5.60,STAT.D,ExtBa=13.30
11/06/2021,17:56:30,TEMP=22.1,BA=5.60,STAT.C,ExtBa=13.30
11/06/2021,18:23:03,TEMP=21.9,BA=5.52,STAT.A,ExtBa=12.90
11/06/2021,18:26:21,TEMP=21.4,BA=5.52,STAT.A,ExtBa=12.90
11/06/2021,18:28:36,TEMP=21.4,BA=5.52,STAT.A,ExtBa=12.90
11/06/2021,18:30:54,TEMP=21.3,BA=5.48,STAT.A,ExtBa=12.90
11/06/2021,18:33:12,TEMP=21.2,BA=5.48,STAT.B,ExtBa=12.90
11/06/2021,18:42:19,TEMP=20.8,BA=5.48,STAT.A,ExtBa=12.80
11/06/2021,18:45:23,TEMP=20.4,BA=5.48,STAT.D,ExtBa=12.90
11/06/2021,18:48:23,TEMP=20.4,BA=5.48,STAT.D,ExtBa=12.90
11/06/2021,18:51:23,TEMP=20.2,BA=5.52,STAT.D,ExtBa=12.90
11/06/2021,18:53:25,TEMP=20.4,BA=5.52,STAT.A,ExtBa=12.90
11/06/2021,18:57:23,TEMP=19.9,BA=5.52,STAT.D,ExtBa=12.90
11/06/2021,18:59:25,TEMP=20.1,BA=5.52,STAT.A,ExtBa=12.90
11/06/2021,19:03:23,TEMP=19.6,BA=5.40,STAT.D,ExtBa=12.90
11/06/2021,19:05:51,TEMP=19.7,BA=5.40,STAT.A,ExtBa=12.90
11/06/2021,19:09:23,TEMP=19.4,BA=5.40,STAT.D,ExtBa=12.90
11/06/2021,19:11:25,TEMP=19.7,BA=5.40,STAT.A,ExtBa=12.90
11/06/2021,19:15:23,TEMP=19.2,BA=5.40,STAT.D,ExtBa=12.90
11/06/2021,19:17:25,TEMP=19.5,BA=5.40,STAT.A,ExtBa=12.90